King Hakan — V7WI2 — position and weather

sailwx.info

Track history (hours):
 
Tides and Currents Weather Stations Pressure Air Temp Water Temp Dewpoint Dewpoint Depression Visibility Wind Speed Wind Dir Waves Ship Positions

King Hakan

Last reported at 2014-Sep-07 12:13 UTC. Time now 2014-Sep-21 04:08 UTC.
Position S 30°11' E 014°17'.
Warning: this ship's position is 13 days out of date.

Length 229 m; draft 14.9 m.

Type: Cargo ship. MMSI: 538090439.

Date/timePositionNaut miles runAvg speedWind from/ knotsBaromVisibWave heightAir tempDewpointWater temp
2014-Sep-07 12:13S 30°11' E 014°17'810.4
2014-Sep-07 11:29S 30°18' E 014°22'1010.1
2014-Sep-07 10:27S 30°26' E 014°29'27711.4
2014-Sep-06 10:07S 34°08' E 017°46'1111.5
2014-Sep-06 09:09S 34°15' E 017°55'711.4
2014-Sep-06 08:33S 34°20' E 018°02'1210.7
2014-Sep-06 07:23S 34°26' E 018°15'910.6
2014-Sep-06 06:33S 34°30' E 018°24'1010.5
2014-Sep-06 05:33S 34°34' E 018°36'1010.2
2014-Sep-06 04:33S 34°38' E 018°47'1210.4
2014-Sep-06 03:22S 34°43' E 019°01'14310.2
2014-Sep-05 13:19S 34°42' E 021°55'2810.2
2014-Sep-05 10:32S 34°39' E 022°29'3610.6
2014-Sep-05 07:11S 34°34' E 023°12'1810.8
2014-Sep-05 05:29S 34°31' E 023°34'47711.6
2014-Sep-03 12:28S 33°09' E 032°59'3611.3
2014-Sep-03 09:17S 32°59' E 033°40'  
Track history (hours):
 
Tides and Currents Weather Stations Pressure Air Temp Water Temp Dewpoint Dewpoint Depression Visibility Wind Speed Wind Dir Waves Ship Positions

King Hakan

Last reported at 2014-Sep-07 12:13 UTC. Time now 2014-Sep-21 04:08 UTC.
Position S 30°11' E 014°17'.
Warning: this ship's position is 13 days out of date.

Length 229 m; draft 14.9 m.

Type: Cargo ship. MMSI: 538090439.

Date/timePositionNaut miles runAvg speedWind from/ knotsBaromVisibWave heightAir tempDewpointWater temp
2014-Sep-07 12:13S 30°11' E 014°17'810.4
2014-Sep-07 11:29S 30°18' E 014°22'1010.1
2014-Sep-07 10:27S 30°26' E 014°29'27711.4
2014-Sep-06 10:07S 34°08' E 017°46'1111.5
2014-Sep-06 09:09S 34°15' E 017°55'711.4
2014-Sep-06 08:33S 34°20' E 018°02'1210.7
2014-Sep-06 07:23S 34°26' E 018°15'910.6
2014-Sep-06 06:33S 34°30' E 018°24'1010.5
2014-Sep-06 05:33S 34°34' E 018°36'1010.2
2014-Sep-06 04:33S 34°38' E 018°47'1210.4
2014-Sep-06 03:22S 34°43' E 019°01'14310.2
2014-Sep-05 13:19S 34°42' E 021°55'2810.2
2014-Sep-05 10:32S 34°39' E 022°29'3610.6
2014-Sep-05 07:11S 34°34' E 023°12'1810.8
2014-Sep-05 05:29S 34°31' E 023°34'47711.6
2014-Sep-03 12:28S 33°09' E 032°59'3611.3
2014-Sep-03 09:17S 32°59' E 033°40'  

Dump ship's entire track history